Enter the Airport ICAO Code

Search by Airport or City

Current Weather

MMGL | Guadalajara International Airport (Miguel Hidalgo y Costilla Int'l)

Guadalajara, Jalisco, Mexico

Last Update 53 Minutes Ago

Sky with Few Clouds

Temperature of 25 ēC

Moderate Winds from West

Temperature

25 ēC

Dew Point Temperature

00 ēC

Relative Humidity

19.43 %

Wind Direction

West (280ē, Without Significant Variations)

Wind Velocity

22 km/h (12 kt)

Gusts

None

Visibility

Reduced to 25 Miles

Sea Level Pressure

30.09 inHg (Inches of Mercury)

Layers of Clouds

5% to 30% of Sky Covered from 914 mts (3000 ft) Above Ground Level.

METAR MMGL 022150Z 28012KT 25SM FEW030 25/00 A3009 RMK 8/500

Weather Forecast

MMGL | Guadalajara International Airport (Miguel Hidalgo y Costilla Int'l)

Guadalajara, Jalisco, Mexico

Forecast valid for the next 25 Hours

From now on it is expected:

Clear Sky

Moderate Winds from West

In 1 to 2 hours it is expected the begining of:

Calm Wind

In 10 hours it is expected the begining of:

Mist

In 18 hours it is expected the begining of:

Partly Cloudy Sky

Moderate Winds from SouthWest

Maximum Temperature

27 ēC in -2 Hours

Minimum Temperature

06 ēC in 13 Hours

TAF MMGL 021652Z 0218/0324 26012KT P6SM SKC TX27/0221Z TN06/0312Z BECMG 0300/0301 00000KT FM030900 00000KT 2SM BR OVC015 FM031700 24015KT 4SM HZ SCT020